sensor_id;sensor_type;location;lat;lon;timestamp;temperature;humidity
7564;DHT22;3823;53.586;10.040;2022-11-15T00:01:36;6.70;99.90
7564;DHT22;3823;53.586;10.040;2022-11-15T00:04:05;6.70;99.90
7564;DHT22;3823;53.586;10.040;2022-11-15T00:06:31;6.60;99.90
7564;DHT22;3823;53.586;10.040;2022-11-15T00:08:58;6.70;99.90
7564;DHT22;3823;53.586;10.040;2022-11-15T00:11:24;6.70;99.90
7564;DHT22;3823;53.586;10.040;2022-11-15T00:13:50;6.70;99.90
7564;DHT22;3823;53.586;10.040;2022-11-15T00:16:15;6.60;99.90
7564;DHT22;3823;53.586;10.040;2022-11-15T00:18:41;6.60;99.90
7564;DHT22;3823;53.586;10.040;2022-11-15T00:21:09;6.60;99.90
7564;DHT22;3823;53.586;10.040;2022-11-15T00:23:35;6.60;99.90
7564;DHT22;3823;53.586;10.040;2022-11-15T00:26:01;6.60;99.90
7564;DHT22;3823;53.586;10.040;2022-11-15T00:28:27;6.60;99.90
7564;DHT22;3823;53.586;10.040;2022-11-15T00:30:53;6.60;99.90
7564;DHT22;3823;53.586;10.040;2022-11-15T00:33:18;6.60;99.90
7564;DHT22;3823;53.586;10.040;2022-11-15T00:35:44;6.60;99.90
7564;DHT22;3823;53.586;10.040;2022-11-15T00:38:10;6.70;99.90
7564;DHT22;3823;53.586;10.040;2022-11-15T00:40:36;6.70;99.90
7564;DHT22;3823;53.586;10.040;2022-11-15T00:43:01;6.70;99.90
7564;DHT22;3823;53.586;10.040;2022-11-15T00:45:27;6.70;99.90
7564;DHT22;3823;53.586;10.040;2022-11-15T00:47:52;6.70;99.90
7564;DHT22;3823;53.586;10.040;2022-11-15T00:50:18;6.70;99.90
7564;DHT22;3823;53.586;10.040;2022-11-15T00:52:44;6.70;99.90
7564;DHT22;3823;53.586;10.040;2022-11-15T00:55:17;6.70;99.90
7564;DHT22;3823;53.586;10.040;2022-11-15T00:57:43;6.60;99.90
7564;DHT22;3823;53.586;10.040;2022-11-15T01:00:10;6.70;99.90
7564;DHT22;3823;53.586;10.040;2022-11-15T01:02:35;6.70;99.90
7564;DHT22;3823;53.586;10.040;2022-11-15T01:05:01;6.60;99.90
7564;DHT22;3823;53.586;10.040;2022-11-15T01:07:27;6.70;99.90
7564;DHT22;3823;53.586;10.040;2022-11-15T01:09:52;6.70;99.90
7564;DHT22;3823;53.586;10.040;2022-11-15T01:12:18;6.70;99.90
7564;DHT22;3823;53.586;10.040;2022-11-15T01:14:43;6.70;99.90
7564;DHT22;3823;53.586;10.040;2022-11-15T01:17:09;6.70;99.90
7564;DHT22;3823;53.586;10.040;2022-11-15T01:19:35;6.70;99.90
7564;DHT22;3823;53.586;10.040;2022-11-15T01:22:00;6.70;99.90
7564;DHT22;3823;53.586;10.040;2022-11-15T01:24:26;6.70;99.90
7564;DHT22;3823;53.586;10.040;2022-11-15T01:26:51;6.70;99.90
7564;DHT22;3823;53.586;10.040;2022-11-15T01:29:17;6.70;99.90
7564;DHT22;3823;53.586;10.040;2022-11-15T01:31:42;6.70;99.90
7564;DHT22;3823;53.586;10.040;2022-11-15T01:34:08;6.70;99.90
7564;DHT22;3823;53.586;10.040;2022-11-15T01:36:34;6.70;99.90
7564;DHT22;3823;53.586;10.040;2022-11-15T01:38:59;6.70;99.90
7564;DHT22;3823;53.586;10.040;2022-11-15T01:41:28;6.70;99.90
7564;DHT22;3823;53.586;10.040;2022-11-15T01:43:57;6.70;99.90
7564;DHT22;3823;53.586;10.040;2022-11-15T01:46:30;6.70;99.90
7564;DHT22;3823;53.586;10.040;2022-11-15T01:49:10;6.70;99.90
7564;DHT22;3823;53.586;10.040;2022-11-15T01:51:37;6.70;99.90
7564;DHT22;3823;53.586;10.040;2022-11-15T01:54:08;6.70;99.90
7564;DHT22;3823;53.586;10.040;2022-11-15T01:56:40;6.70;99.90
7564;DHT22;3823;53.586;10.040;2022-11-15T01:59:08;6.60;99.90
7564;DHT22;3823;53.586;10.040;2022-11-15T02:01:34;6.60;99.90
7564;DHT22;3823;53.586;10.040;2022-11-15T02:04:11;6.60;99.90
7564;DHT22;3823;53.586;10.040;2022-11-15T02:06:39;6.60;99.90
7564;DHT22;3823;53.586;10.040;2022-11-15T02:09:05;6.60;99.90
7564;DHT22;3823;53.586;10.040;2022-11-15T02:11:31;6.50;99.90
7564;DHT22;3823;53.586;10.040;2022-11-15T02:13:58;6.50;99.90
7564;DHT22;3823;53.586;10.040;2022-11-15T02:16:44;6.50;99.90
7564;DHT22;3823;53.586;10.040;2022-11-15T02:32:57;6.50;99.90
7564;DHT22;3823;53.586;10.040;2022-11-15T02:35:31;6.50;99.90
7564;DHT22;3823;53.586;10.040;2022-11-15T02:38:12;6.50;99.90
7564;DHT22;3823;53.586;10.040;2022-11-15T02:49:37;6.50;99.90
7564;DHT22;3823;53.586;10.040;2022-11-15T02:52:04;6.50;99.90
7564;DHT22;3823;53.586;10.040;2022-11-15T02:54:31;6.60;99.90
7564;DHT22;3823;53.586;10.040;2022-11-15T02:57:15;6.50;99.90
7564;DHT22;3823;53.586;10.040;2022-11-15T03:04:59;6.40;99.90
7564;DHT22;3823;53.586;10.040;2022-11-15T03:07:35;6.40;99.90
7564;DHT22;3823;53.586;10.040;2022-11-15T03:10:09;6.40;99.90
7564;DHT22;3823;53.586;10.040;2022-11-15T03:15:17;6.40;99.90
7564;DHT22;3823;53.586;10.040;2022-11-15T03:17:54;6.40;99.90
7564;DHT22;3823;53.586;10.040;2022-11-15T03:20:21;6.40;99.90
7564;DHT22;3823;53.586;10.040;2022-11-15T03:22:48;6.40;99.90
7564;DHT22;3823;53.586;10.040;2022-11-15T03:25:19;6.40;99.90
7564;DHT22;3823;53.586;10.040;2022-11-15T03:27:52;6.50;99.90
7564;DHT22;3823;53.586;10.040;2022-11-15T03:30:20;6.50;99.90
7564;DHT22;3823;53.586;10.040;2022-11-15T03:32:57;6.50;99.90
7564;DHT22;3823;53.586;10.040;2022-11-15T03:35:25;6.50;99.90
7564;DHT22;3823;53.586;10.040;2022-11-15T03:38:24;6.50;99.90
7564;DHT22;3823;53.586;10.040;2022-11-15T03:40:59;6.50;99.90
7564;DHT22;3823;53.586;10.040;2022-11-15T03:46:38;6.50;99.90
7564;DHT22;3823;53.586;10.040;2022-11-15T03:49:33;6.50;99.90
7564;DHT22;3823;53.586;10.040;2022-11-15T03:52:00;6.50;99.90
7564;DHT22;3823;53.586;10.040;2022-11-15T03:54:27;6.60;99.90
7564;DHT22;3823;53.586;10.040;2022-11-15T03:56:52;6.50;99.90
7564;DHT22;3823;53.586;10.040;2022-11-15T03:59:18;6.60;99.90
7564;DHT22;3823;53.586;10.040;2022-11-15T04:01:43;6.60;99.90
7564;DHT22;3823;53.586;10.040;2022-11-15T04:04:09;6.60;99.90
7564;DHT22;3823;53.586;10.040;2022-11-15T04:06:35;6.60;99.90
7564;DHT22;3823;53.586;10.040;2022-11-15T04:09:00;6.60;99.90
7564;DHT22;3823;53.586;10.040;2022-11-15T04:11:26;6.70;99.90
7564;DHT22;3823;53.586;10.040;2022-11-15T04:13:51;6.70;99.90
7564;DHT22;3823;53.586;10.040;2022-11-15T04:16:17;6.70;99.90
7564;DHT22;3823;53.586;10.040;2022-11-15T04:18:42;6.60;99.90
7564;DHT22;3823;53.586;10.040;2022-11-15T04:21:08;6.60;99.90
7564;DHT22;3823;53.586;10.040;2022-11-15T04:23:53;6.60;99.90
7564;DHT22;3823;53.586;10.040;2022-11-15T04:26:21;6.60;99.90
7564;DHT22;3823;53.586;10.040;2022-11-15T04:28:47;6.60;99.90
7564;DHT22;3823;53.586;10.040;2022-11-15T04:31:32;6.50;99.90
7564;DHT22;3823;53.586;10.040;2022-11-15T04:33:57;6.50;99.90
7564;DHT22;3823;53.586;10.040;2022-11-15T04:36:23;6.40;99.90
7564;DHT22;3823;53.586;10.040;2022-11-15T04:39:08;6.50;99.90
7564;DHT22;3823;53.586;10.040;2022-11-15T04:41:34;6.40;99.90
7564;DHT22;3823;53.586;10.040;2022-11-15T04:44:00;6.40;99.90
7564;DHT22;3823;53.586;10.040;2022-11-15T04:46:26;6.50;99.90
7564;DHT22;3823;53.586;10.040;2022-11-15T04:48:52;6.50;99.90
7564;DHT22;3823;53.586;10.040;2022-11-15T04:51:18;6.60;99.90
7564;DHT22;3823;53.586;10.040;2022-11-15T04:53:44;6.60;99.90
7564;DHT22;3823;53.586;10.040;2022-11-15T04:56:09;6.60;99.90
7564;DHT22;3823;53.586;10.040;2022-11-15T04:58:35;6.60;99.90
7564;DHT22;3823;53.586;10.040;2022-11-15T05:01:11;6.60;99.90
7564;DHT22;3823;53.586;10.040;2022-11-15T05:03:40;6.60;99.90
7564;DHT22;3823;53.586;10.040;2022-11-15T05:06:24;6.60;99.90
7564;DHT22;3823;53.586;10.040;2022-11-15T05:08:50;6.60;99.90
7564;DHT22;3823;53.586;10.040;2022-11-15T05:11:15;6.70;99.90
7564;DHT22;3823;53.586;10.040;2022-11-15T05:13:41;6.70;99.90
7564;DHT22;3823;53.586;10.040;2022-11-15T05:16:06;6.70;99.90
7564;DHT22;3823;53.586;10.040;2022-11-15T05:18:32;6.70;99.90
7564;DHT22;3823;53.586;10.040;2022-11-15T05:21:05;6.80;99.90
7564;DHT22;3823;53.586;10.040;2022-11-15T05:23:31;6.80;99.90
7564;DHT22;3823;53.586;10.040;2022-11-15T05:26:01;6.80;99.90
7564;DHT22;3823;53.586;10.040;2022-11-15T05:28:26;6.80;99.90
7564;DHT22;3823;53.586;10.040;2022-11-15T05:30:52;6.80;99.90
7564;DHT22;3823;53.586;10.040;2022-11-15T05:33:18;6.90;99.90
7564;DHT22;3823;53.586;10.040;2022-11-15T05:35:48;6.90;99.90
7564;DHT22;3823;53.586;10.040;2022-11-15T05:38:16;6.90;99.90
7564;DHT22;3823;53.586;10.040;2022-11-15T05:40:42;6.90;99.90
7564;DHT22;3823;53.586;10.040;2022-11-15T05:43:08;6.90;99.90
7564;DHT22;3823;53.586;10.040;2022-11-15T05:45:35;6.90;99.90
7564;DHT22;3823;53.586;10.040;2022-11-15T05:48:05;7.00;99.90
7564;DHT22;3823;53.586;10.040;2022-11-15T05:50:31;6.90;99.90
7564;DHT22;3823;53.586;10.040;2022-11-15T05:52:57;7.00;99.90
7564;DHT22;3823;53.586;10.040;2022-11-15T05:55:23;7.00;99.90
7564;DHT22;3823;53.586;10.040;2022-11-15T05:57:48;7.00;99.90
7564;DHT22;3823;53.586;10.040;2022-11-15T06:00:14;7.00;99.90
7564;DHT22;3823;53.586;10.040;2022-11-15T06:02:40;7.00;99.90
7564;DHT22;3823;53.586;10.040;2022-11-15T06:05:05;7.00;99.90
7564;DHT22;3823;53.586;10.040;2022-11-15T06:07:32;7.00;99.90
7564;DHT22;3823;53.586;10.040;2022-11-15T06:09:57;7.00;99.90
7564;DHT22;3823;53.586;10.040;2022-11-15T06:12:23;7.00;99.90
7564;DHT22;3823;53.586;10.040;2022-11-15T06:14:48;7.00;99.90
7564;DHT22;3823;53.586;10.040;2022-11-15T06:17:14;7.00;99.90
7564;DHT22;3823;53.586;10.040;2022-11-15T06:19:40;7.00;99.90
7564;DHT22;3823;53.586;10.040;2022-11-15T06:22:05;7.00;99.90
7564;DHT22;3823;53.586;10.040;2022-11-15T06:24:31;6.90;99.90
7564;DHT22;3823;53.586;10.040;2022-11-15T06:26:57;7.00;99.90
7564;DHT22;3823;53.586;10.040;2022-11-15T06:29:23;6.90;99.90
7564;DHT22;3823;53.586;10.040;2022-11-15T06:31:48;7.00;99.90
7564;DHT22;3823;53.586;10.040;2022-11-15T06:34:14;7.00;99.90
7564;DHT22;3823;53.586;10.040;2022-11-15T06:36:39;7.00;99.90
7564;DHT22;3823;53.586;10.040;2022-11-15T06:39:05;7.00;99.90
7564;DHT22;3823;53.586;10.040;2022-11-15T06:41:34;7.00;99.90
7564;DHT22;3823;53.586;10.040;2022-11-15T06:44:00;7.10;99.90
7564;DHT22;3823;53.586;10.040;2022-11-15T06:46:25;7.10;99.90
7564;DHT22;3823;53.586;10.040;2022-11-15T06:48:52;7.10;99.90
7564;DHT22;3823;53.586;10.040;2022-11-15T06:51:18;7.10;99.90
7564;DHT22;3823;53.586;10.040;2022-11-15T06:53:44;7.20;99.90
7564;DHT22;3823;53.586;10.040;2022-11-15T06:56:09;7.20;99.90
7564;DHT22;3823;53.586;10.040;2022-11-15T06:58:36;7.20;99.90
7564;DHT22;3823;53.586;10.040;2022-11-15T07:01:10;7.20;99.90
7564;DHT22;3823;53.586;10.040;2022-11-15T07:03:38;7.30;99.90
7564;DHT22;3823;53.586;10.040;2022-11-15T07:06:04;7.30;99.90
7564;DHT22;3823;53.586;10.040;2022-11-15T07:08:30;7.20;99.90
7564;DHT22;3823;53.586;10.040;2022-11-15T07:11:00;7.30;99.90
7564;DHT22;3823;53.586;10.040;2022-11-15T07:13:27;7.30;99.90
7564;DHT22;3823;53.586;10.040;2022-11-15T07:15:54;7.30;99.90
7564;DHT22;3823;53.586;10.040;2022-11-15T07:18:19;7.30;99.90
7564;DHT22;3823;53.586;10.040;2022-11-15T07:20:45;7.30;99.90
7564;DHT22;3823;53.586;10.040;2022-11-15T07:23:11;7.30;99.90
7564;DHT22;3823;53.586;10.040;2022-11-15T07:25:36;7.40;99.90
7564;DHT22;3823;53.586;10.040;2022-11-15T07:28:03;7.40;99.90
7564;DHT22;3823;53.586;10.040;2022-11-15T07:30:28;7.40;99.90
7564;DHT22;3823;53.586;10.040;2022-11-15T07:32:55;7.40;99.90
7564;DHT22;3823;53.586;10.040;2022-11-15T07:35:21;7.40;99.90
7564;DHT22;3823;53.586;10.040;2022-11-15T07:38:14;7.40;99.90
7564;DHT22;3823;53.586;10.040;2022-11-15T07:40:40;7.40;99.90
7564;DHT22;3823;53.586;10.040;2022-11-15T07:43:07;7.50;99.90
7564;DHT22;3823;53.586;10.040;2022-11-15T07:45:33;7.50;99.90
7564;DHT22;3823;53.586;10.040;2022-11-15T07:48:00;7.50;99.90
7564;DHT22;3823;53.586;10.040;2022-11-15T07:50:26;7.50;99.90
7564;DHT22;3823;53.586;10.040;2022-11-15T07:52:57;7.50;99.90
7564;DHT22;3823;53.586;10.040;2022-11-15T07:55:24;7.50;99.90
7564;DHT22;3823;53.586;10.040;2022-11-15T07:57:50;7.50;99.90
7564;DHT22;3823;53.586;10.040;2022-11-15T08:00:16;7.50;99.90
7564;DHT22;3823;53.586;10.040;2022-11-15T08:02:42;7.50;99.90
7564;DHT22;3823;53.586;10.040;2022-11-15T08:05:08;7.50;99.90
7564;DHT22;3823;53.586;10.040;2022-11-15T08:07:33;7.50;99.90
7564;DHT22;3823;53.586;10.040;2022-11-15T08:09:59;7.50;99.90
7564;DHT22;3823;53.586;10.040;2022-11-15T08:12:27;7.50;99.90
7564;DHT22;3823;53.586;10.040;2022-11-15T08:14:54;7.50;99.90
7564;DHT22;3823;53.586;10.040;2022-11-15T08:17:20;7.50;99.90
7564;DHT22;3823;53.586;10.040;2022-11-15T08:19:46;7.60;99.90
7564;DHT22;3823;53.586;10.040;2022-11-15T08:22:11;7.60;99.90
7564;DHT22;3823;53.586;10.040;2022-11-15T08:24:37;7.60;99.90
7564;DHT22;3823;53.586;10.040;2022-11-15T08:27:03;7.60;99.90
7564;DHT22;3823;53.586;10.040;2022-11-15T08:29:28;7.50;99.90
7564;DHT22;3823;53.586;10.040;2022-11-15T08:31:55;7.50;99.90
7564;DHT22;3823;53.586;10.040;2022-11-15T08:34:21;7.50;99.90
7564;DHT22;3823;53.586;10.040;2022-11-15T08:36:47;7.40;99.90
7564;DHT22;3823;53.586;10.040;2022-11-15T08:39:12;7.40;99.90
7564;DHT22;3823;53.586;10.040;2022-11-15T08:41:38;7.40;99.90
7564;DHT22;3823;53.586;10.040;2022-11-15T08:44:04;7.50;99.90
7564;DHT22;3823;53.586;10.040;2022-11-15T08:46:30;7.40;99.90
7564;DHT22;3823;53.586;10.040;2022-11-15T08:48:55;7.50;99.90
7564;DHT22;3823;53.586;10.040;2022-11-15T08:51:21;7.50;99.90
7564;DHT22;3823;53.586;10.040;2022-11-15T08:53:46;7.50;99.90
7564;DHT22;3823;53.586;10.040;2022-11-15T08:56:13;7.60;99.90
7564;DHT22;3823;53.586;10.040;2022-11-15T08:58:39;7.70;99.90
7564;DHT22;3823;53.586;10.040;2022-11-15T09:01:05;7.60;99.90
7564;DHT22;3823;53.586;10.040;2022-11-15T09:03:31;7.70;99.90
7564;DHT22;3823;53.586;10.040;2022-11-15T09:05:58;7.70;99.90
7564;DHT22;3823;53.586;10.040;2022-11-15T09:08:25;7.70;99.90
7564;DHT22;3823;53.586;10.040;2022-11-15T09:10:51;7.70;99.90
7564;DHT22;3823;53.586;10.040;2022-11-15T09:13:16;7.70;99.90
7564;DHT22;3823;53.586;10.040;2022-11-15T09:15:42;7.80;99.90
7564;DHT22;3823;53.586;10.040;2022-11-15T09:18:08;7.80;99.90
7564;DHT22;3823;53.586;10.040;2022-11-15T09:20:33;7.80;99.90
7564;DHT22;3823;53.586;10.040;2022-11-15T09:23:03;7.80;99.90
7564;DHT22;3823;53.586;10.040;2022-11-15T09:25:29;7.90;99.90
7564;DHT22;3823;53.586;10.040;2022-11-15T09:27:55;8.00;99.90
7564;DHT22;3823;53.586;10.040;2022-11-15T09:30:20;8.00;99.90
7564;DHT22;3823;53.586;10.040;2022-11-15T09:32:47;8.00;99.90
7564;DHT22;3823;53.586;10.040;2022-11-15T09:35:12;8.10;99.90
7564;DHT22;3823;53.586;10.040;2022-11-15T09:37:38;8.10;99.90
7564;DHT22;3823;53.586;10.040;2022-11-15T09:40:03;8.10;99.90
7564;DHT22;3823;53.586;10.040;2022-11-15T09:42:47;8.20;99.90
7564;DHT22;3823;53.586;10.040;2022-11-15T09:45:20;8.20;99.90
7564;DHT22;3823;53.586;10.040;2022-11-15T09:50:51;8.30;99.90
7564;DHT22;3823;53.586;10.040;2022-11-15T09:53:52;8.30;99.90
7564;DHT22;3823;53.586;10.040;2022-11-15T09:56:21;8.40;99.90
7564;DHT22;3823;53.586;10.040;2022-11-15T09:59:01;8.40;99.90
7564;DHT22;3823;53.586;10.040;2022-11-15T10:02:03;8.50;99.90
7564;DHT22;3823;53.586;10.040;2022-11-15T10:04:33;8.60;99.90
7564;DHT22;3823;53.586;10.040;2022-11-15T10:07:25;8.60;99.90
7564;DHT22;3823;53.586;10.040;2022-11-15T10:12:31;8.70;99.90
7564;DHT22;3823;53.586;10.040;2022-11-15T10:15:02;8.80;99.90
7564;DHT22;3823;53.586;10.040;2022-11-15T10:17:43;8.80;99.90
7564;DHT22;3823;53.586;10.040;2022-11-15T10:20:24;8.90;99.90
7564;DHT22;3823;53.586;10.040;2022-11-15T10:22:56;8.90;99.90
7564;DHT22;3823;53.586;10.040;2022-11-15T10:25:26;9.00;99.90
7564;DHT22;3823;53.586;10.040;2022-11-15T10:28:10;9.00;99.90
7564;DHT22;3823;53.586;10.040;2022-11-15T10:30:43;9.10;99.90
7564;DHT22;3823;53.586;10.040;2022-11-15T10:41:38;9.30;99.90
7564;DHT22;3823;53.586;10.040;2022-11-15T10:46:43;9.50;99.90
7564;DHT22;3823;53.586;10.040;2022-11-15T10:49:15;9.50;99.90
7564;DHT22;3823;53.586;10.040;2022-11-15T10:51:51;9.60;99.90
7564;DHT22;3823;53.586;10.040;2022-11-15T10:56:57;9.70;99.90
7564;DHT22;3823;53.586;10.040;2022-11-15T10:59:31;9.70;99.90
7564;DHT22;3823;53.586;10.040;2022-11-15T11:01:59;9.70;99.90
7564;DHT22;3823;53.586;10.040;2022-11-15T11:04:25;9.80;99.90
7564;DHT22;3823;53.586;10.040;2022-11-15T11:06:53;9.80;99.90
7564;DHT22;3823;53.586;10.040;2022-11-15T11:09:37;9.80;99.90
7564;DHT22;3823;53.586;10.040;2022-11-15T11:12:05;9.90;99.90
7564;DHT22;3823;53.586;10.040;2022-11-15T11:14:34;9.90;99.90
7564;DHT22;3823;53.586;10.040;2022-11-15T11:17:09;10.00;99.90
7564;DHT22;3823;53.586;10.040;2022-11-15T11:22:37;10.00;99.90
7564;DHT22;3823;53.586;10.040;2022-11-15T11:28:05;10.10;99.90
7564;DHT22;3823;53.586;10.040;2022-11-15T11:39:31;10.20;99.90
7564;DHT22;3823;53.586;10.040;2022-11-15T11:42:30;10.30;99.90
7564;DHT22;3823;53.586;10.040;2022-11-15T11:47:32;10.30;99.90
7564;DHT22;3823;53.586;10.040;2022-11-15T11:50:21;10.30;99.90
7564;DHT22;3823;53.586;10.040;2022-11-15T11:53:12;10.30;99.90
7564;DHT22;3823;53.586;10.040;2022-11-15T11:55:47;10.30;99.90
7564;DHT22;3823;53.586;10.040;2022-11-15T11:58:20;10.30;99.90
7564;DHT22;3823;53.586;10.040;2022-11-15T12:01:14;10.30;99.90
7564;DHT22;3823;53.586;10.040;2022-11-15T12:03:54;10.30;99.90
7564;DHT22;3823;53.586;10.040;2022-11-15T12:11:55;10.50;99.90
7564;DHT22;3823;53.586;10.040;2022-11-15T12:14:31;10.50;99.90
7564;DHT22;3823;53.586;10.040;2022-11-15T12:16:57;10.50;99.90
7564;DHT22;3823;53.586;10.040;2022-11-15T12:19:24;10.50;99.90
7564;DHT22;3823;53.586;10.040;2022-11-15T12:22:08;10.60;99.90
7564;DHT22;3823;53.586;10.040;2022-11-15T12:24:41;10.60;99.90
7564;DHT22;3823;53.586;10.040;2022-11-15T12:27:29;10.60;99.90
7564;DHT22;3823;53.586;10.040;2022-11-15T12:30:02;10.70;99.90
7564;DHT22;3823;53.586;10.040;2022-11-15T12:32:31;10.70;99.90
7564;DHT22;3823;53.586;10.040;2022-11-15T12:34:59;10.80;99.90
7564;DHT22;3823;53.586;10.040;2022-11-15T12:42:56;11.00;99.90
7564;DHT22;3823;53.586;10.040;2022-11-15T12:45:40;11.00;99.90
7564;DHT22;3823;53.586;10.040;2022-11-15T13:04:23;11.20;91.30
7564;DHT22;3823;53.586;10.040;2022-11-15T13:07:04;11.30;92.00
7564;DHT22;3823;53.586;10.040;2022-11-15T13:19:46;11.30;92.30
7564;DHT22;3823;53.586;10.040;2022-11-15T13:22:12;11.30;93.50
7564;DHT22;3823;53.586;10.040;2022-11-15T13:24:56;11.30;93.60
7564;DHT22;3823;53.586;10.040;2022-11-15T13:27:22;11.30;91.90
7564;DHT22;3823;53.586;10.040;2022-11-15T13:29:48;11.30;94.40
7564;DHT22;3823;53.586;10.040;2022-11-15T13:32:15;11.30;93.60
7564;DHT22;3823;53.586;10.040;2022-11-15T13:34:46;11.40;96.20
7564;DHT22;3823;53.586;10.040;2022-11-15T13:39:48;11.40;93.40
7564;DHT22;3823;53.586;10.040;2022-11-15T13:42:20;11.40;94.90
7564;DHT22;3823;53.586;10.040;2022-11-15T13:44:58;11.30;93.20
7564;DHT22;3823;53.586;10.040;2022-11-15T13:47:26;11.40;93.70
7564;DHT22;3823;53.586;10.040;2022-11-15T13:49:52;11.30;94.30
7564;DHT22;3823;53.586;10.040;2022-11-15T13:52:18;11.40;98.50
7564;DHT22;3823;53.586;10.040;2022-11-15T13:55:02;11.40;97.80
7564;DHT22;3823;53.586;10.040;2022-11-15T13:57:56;11.40;97.70
7564;DHT22;3823;53.586;10.040;2022-11-15T14:00:41;11.50;94.60
7564;DHT22;3823;53.586;10.040;2022-11-15T14:03:21;11.50;92.90
7564;DHT22;3823;53.586;10.040;2022-11-15T14:06:07;11.40;93.10
7564;DHT22;3823;53.586;10.040;2022-11-15T14:08:36;11.40;93.70
7564;DHT22;3823;53.586;10.040;2022-11-15T14:11:19;11.50;92.90
7564;DHT22;3823;53.586;10.040;2022-11-15T14:16:59;11.40;96.20
7564;DHT22;3823;53.586;10.040;2022-11-15T14:22:17;11.40;95.90
7564;DHT22;3823;53.586;10.040;2022-11-15T14:24:45;11.40;99.00
7564;DHT22;3823;53.586;10.040;2022-11-15T14:27:28;11.40;99.90
7564;DHT22;3823;53.586;10.040;2022-11-15T14:29:54;11.40;99.90
7564;DHT22;3823;53.586;10.040;2022-11-15T14:32:23;11.40;99.90
7564;DHT22;3823;53.586;10.040;2022-11-15T14:34:58;11.40;99.90
7564;DHT22;3823;53.586;10.040;2022-11-15T14:39:51;11.40;99.90
7564;DHT22;3823;53.586;10.040;2022-11-15T14:42:18;11.40;99.90
7564;DHT22;3823;53.586;10.040;2022-11-15T14:44:44;11.40;99.90
7564;DHT22;3823;53.586;10.040;2022-11-15T14:47:10;11.40;99.90
7564;DHT22;3823;53.586;10.040;2022-11-15T14:49:35;11.40;99.90
7564;DHT22;3823;53.586;10.040;2022-11-15T14:52:01;11.30;99.90
7564;DHT22;3823;53.586;10.040;2022-11-15T14:54:26;11.30;99.90
7564;DHT22;3823;53.586;10.040;2022-11-15T14:56:52;11.30;99.90
7564;DHT22;3823;53.586;10.040;2022-11-15T14:59:17;11.30;99.90
7564;DHT22;3823;53.586;10.040;2022-11-15T15:01:43;11.30;99.90
7564;DHT22;3823;53.586;10.040;2022-11-15T15:04:10;11.30;99.90
7564;DHT22;3823;53.586;10.040;2022-11-15T15:06:36;11.30;99.90
7564;DHT22;3823;53.586;10.040;2022-11-15T15:09:02;11.20;99.90
7564;DHT22;3823;53.586;10.040;2022-11-15T15:11:30;11.20;99.90
7564;DHT22;3823;53.586;10.040;2022-11-15T15:13:56;11.20;99.90
7564;DHT22;3823;53.586;10.040;2022-11-15T15:16:24;11.20;99.90
7564;DHT22;3823;53.586;10.040;2022-11-15T15:18:50;11.10;99.90
7564;DHT22;3823;53.586;10.040;2022-11-15T15:21:27;11.10;99.90
7564;DHT22;3823;53.586;10.040;2022-11-15T15:23:53;11.10;99.90
7564;DHT22;3823;53.586;10.040;2022-11-15T15:26:23;11.10;99.90
7564;DHT22;3823;53.586;10.040;2022-11-15T15:28:48;11.00;99.90
7564;DHT22;3823;53.586;10.040;2022-11-15T15:31:16;11.00;99.90
7564;DHT22;3823;53.586;10.040;2022-11-15T15:33:42;11.00;99.90
7564;DHT22;3823;53.586;10.040;2022-11-15T15:36:11;10.90;99.90
7564;DHT22;3823;53.586;10.040;2022-11-15T15:38:37;10.90;99.90
7564;DHT22;3823;53.586;10.040;2022-11-15T15:41:03;10.90;99.90
7564;DHT22;3823;53.586;10.040;2022-11-15T15:43:28;10.80;99.90
7564;DHT22;3823;53.586;10.040;2022-11-15T15:45:55;10.80;99.90
7564;DHT22;3823;53.586;10.040;2022-11-15T15:48:21;10.80;99.90
7564;DHT22;3823;53.586;10.040;2022-11-15T15:50:46;10.80;99.90
7564;DHT22;3823;53.586;10.040;2022-11-15T15:53:13;10.80;99.90
7564;DHT22;3823;53.586;10.040;2022-11-15T15:55:38;10.70;99.90
7564;DHT22;3823;53.586;10.040;2022-11-15T15:58:04;10.70;99.90
7564;DHT22;3823;53.586;10.040;2022-11-15T16:00:30;10.70;99.90
7564;DHT22;3823;53.586;10.040;2022-11-15T16:02:58;10.60;99.90
7564;DHT22;3823;53.586;10.040;2022-11-15T16:05:24;10.60;99.90
7564;DHT22;3823;53.586;10.040;2022-11-15T16:07:50;10.60;99.90
7564;DHT22;3823;53.586;10.040;2022-11-15T16:10:25;10.60;99.90
7564;DHT22;3823;53.586;10.040;2022-11-15T16:12:52;10.60;99.90
7564;DHT22;3823;53.586;10.040;2022-11-15T16:15:19;10.50;99.90
7564;DHT22;3823;53.586;10.040;2022-11-15T16:17:49;10.50;99.90
7564;DHT22;3823;53.586;10.040;2022-11-15T16:20:34;10.50;99.90
7564;DHT22;3823;53.586;10.040;2022-11-15T16:23:02;10.50;99.90
7564;DHT22;3823;53.586;10.040;2022-11-15T16:25:28;10.50;99.90
7564;DHT22;3823;53.586;10.040;2022-11-15T16:27:54;10.50;99.90
7564;DHT22;3823;53.586;10.040;2022-11-15T16:30:21;10.50;99.90
7564;DHT22;3823;53.586;10.040;2022-11-15T16:32:47;10.50;99.90
7564;DHT22;3823;53.586;10.040;2022-11-15T16:35:14;10.50;99.90
7564;DHT22;3823;53.586;10.040;2022-11-15T16:37:40;10.50;99.90
7564;DHT22;3823;53.586;10.040;2022-11-15T16:40:30;10.50;99.90
7564;DHT22;3823;53.586;10.040;2022-11-15T16:42:57;10.50;99.90
7564;DHT22;3823;53.586;10.040;2022-11-15T16:45:25;10.50;99.90
7564;DHT22;3823;53.586;10.040;2022-11-15T16:47:50;10.50;99.90
7564;DHT22;3823;53.586;10.040;2022-11-15T16:52:54;10.50;99.90
7564;DHT22;3823;53.586;10.040;2022-11-15T16:55:22;10.50;99.90
7564;DHT22;3823;53.586;10.040;2022-11-15T16:57:48;10.50;99.90
7564;DHT22;3823;53.586;10.040;2022-11-15T17:00:16;10.50;99.90
7564;DHT22;3823;53.586;10.040;2022-11-15T17:02:51;10.50;99.90
7564;DHT22;3823;53.586;10.040;2022-11-15T17:05:19;10.60;99.90
7564;DHT22;3823;53.586;10.040;2022-11-15T17:07:47;10.50;99.90
7564;DHT22;3823;53.586;10.040;2022-11-15T17:10:15;10.50;99.90
7564;DHT22;3823;53.586;10.040;2022-11-15T17:12:41;10.50;99.90
7564;DHT22;3823;53.586;10.040;2022-11-15T17:15:07;10.50;99.90
7564;DHT22;3823;53.586;10.040;2022-11-15T17:17:32;10.50;99.90
7564;DHT22;3823;53.586;10.040;2022-11-15T17:19:58;10.50;99.90
7564;DHT22;3823;53.586;10.040;2022-11-15T17:22:24;10.50;99.90
7564;DHT22;3823;53.586;10.040;2022-11-15T17:24:50;10.50;99.90
7564;DHT22;3823;53.586;10.040;2022-11-15T17:27:15;10.50;99.90
7564;DHT22;3823;53.586;10.040;2022-11-15T17:29:41;10.50;99.90
7564;DHT22;3823;53.586;10.040;2022-11-15T17:32:07;10.50;99.90
7564;DHT22;3823;53.586;10.040;2022-11-15T17:34:33;10.50;99.90
7564;DHT22;3823;53.586;10.040;2022-11-15T17:36:58;10.50;99.90
7564;DHT22;3823;53.586;10.040;2022-11-15T17:39:24;10.50;99.90
7564;DHT22;3823;53.586;10.040;2022-11-15T17:41:50;10.50;99.90
7564;DHT22;3823;53.586;10.040;2022-11-15T17:44:16;10.50;99.90
7564;DHT22;3823;53.586;10.040;2022-11-15T17:46:42;10.50;99.90
7564;DHT22;3823;53.586;10.040;2022-11-15T17:49:07;10.50;99.90
7564;DHT22;3823;53.586;10.040;2022-11-15T17:51:33;10.50;99.90
7564;DHT22;3823;53.586;10.040;2022-11-15T17:53:59;10.50;99.90
7564;DHT22;3823;53.586;10.040;2022-11-15T17:56:26;10.50;99.90
7564;DHT22;3823;53.586;10.040;2022-11-15T17:58:57;10.50;99.90
7564;DHT22;3823;53.586;10.040;2022-11-15T18:01:25;10.50;99.90
7564;DHT22;3823;53.586;10.040;2022-11-15T18:03:52;10.50;99.90
7564;DHT22;3823;53.586;10.040;2022-11-15T18:06:19;10.60;99.90
7564;DHT22;3823;53.586;10.040;2022-11-15T18:08:46;10.70;99.90
7564;DHT22;3823;53.586;10.040;2022-11-15T18:14:00;11.10;99.90